Time;durP1;ratioP1;P1;durP2;ratioP2;P2;SDS_P1;SDS_P2;PMS_P1;PMS_P2;Temp;Humidity;BMP_temperature;BMP_pressure;BME280_temperature;BME280_humidity;BME280_pressure;Samples;Min_cycle;Max_cycle;Signal;HPM_P1;HPM_P2
2022/12/01 00:00:59;;;;;;;31.38;15.55;;;;;;;-142.75;100.00;79185.28;5004149;28;20344;-65
2022/12/01 00:03:28;;;;;;;21.88;10.45;;;;;;;-142.75;100.00;79256.19;5004502;28;20145;-65
2022/12/01 00:06:16;;;;;;;23.77;11.40;;;;;;;-142.75;100.00;79260.13;5004252;28;20570;-65
2022/12/01 00:11:27;;;;;;;29.80;14.13;;;;;;;-142.75;100.00;79236.50;5004423;28;20334;-66
2022/12/01 00:13:52;;;;;;;25.70;12.48;;;;;;;-142.75;100.00;79220.75;5003984;28;20945;-65
2022/12/01 00:16:18;;;;;;;29.85;13.73;;;;;;;-142.75;100.00;79201.03;5004192;28;20440;-65
2022/12/01 00:18:48;;;;;;;36.13;15.83;;;;;;;-142.75;100.00;79218.75;4998097;28;20037;-65
2022/12/01 00:21:16;;;;;;;34.77;16.17;;;;;;;-142.75;100.00;79232.56;5003463;28;20016;-65
2022/12/01 00:23:43;;;;;;;32.00;14.33;;;;;;;-142.75;100.00;79242.41;5002821;28;20029;-65
2022/12/01 00:26:09;;;;;;;28.27;13.30;;;;;;;-142.75;100.00;79268.00;5026488;22;20542;-61
2022/12/01 00:28:34;;;;;;;28.13;12.70;;;;;;;-142.75;100.00;79279.84;5003278;28;20023;-62
2022/12/01 00:30:59;;;;;;;26.13;10.93;;;;;;;-142.75;100.00;79277.88;5003315;28;20368;-62
2022/12/01 00:33:25;;;;;;;19.88;10.20;;;;;;;-142.75;100.00;79309.38;5003475;28;20123;-62
2022/12/01 00:35:57;;;;;;;17.52;8.82;;;;;;;-142.75;100.00;79338.94;4986935;28;20325;-61
2022/12/01 00:38:23;;;;;;;18.00;8.23;;;;;;;-142.75;100.00;79354.69;4983452;28;20017;-61
2022/12/01 00:40:48;;;;;;;15.80;7.80;;;;;;;-142.75;100.00;79378.31;4983451;28;20159;-62
2022/12/01 00:43:13;;;;;;;13.57;7.38;;;;;;;-142.75;100.00;79390.13;4983640;28;20329;-62
2022/12/01 00:45:39;;;;;;;12.57;6.20;;;;;;;-142.75;100.00;79396.06;4983752;28;20295;-61
2022/12/01 00:48:04;;;;;;;11.85;6.30;;;;;;;-142.75;100.00;79394.09;4984092;28;20309;-64
2022/12/01 00:50:30;;;;;;;11.15;6.28;;;;;;;-142.75;100.00;79386.19;4983281;28;20579;-64
2022/12/01 00:52:55;;;;;;;11.65;6.18;;;;;;;-142.75;100.00;79396.06;4984036;28;20408;-63
2022/12/01 00:55:21;;;;;;;12.38;6.70;;;;;;;-142.75;100.00;79390.13;4982706;28;20197;-64
2022/12/01 00:57:46;;;;;;;23.85;8.88;;;;;;;-142.75;100.00;79425.59;4982808;28;20330;-64
2022/12/01 01:00:12;;;;;;;8.65;5.07;;;;;;;-142.75;100.00;79433.47;4983252;28;20303;-62
2022/12/01 01:02:39;;;;;;;;;;;;;;;-142.75;100.00;79413.78;4983375;28;20561;-63
2022/12/01 01:05:05;;;;;;;13.83;6.93;;;;;;;-142.75;100.00;79409.84;4983674;28;19912;-63
2022/12/01 01:07:31;;;;;;;21.77;9.03;;;;;;;-142.75;100.00;79405.91;4980753;28;20047;-61
2022/12/01 01:09:56;;;;;;;19.92;8.15;;;;;;;-142.75;100.00;79390.13;4982905;28;20353;-62
2022/12/01 01:12:22;;;;;;;20.65;10.45;;;;;;;-142.75;100.00;79372.41;4982553;28;20460;-62
2022/12/01 01:14:47;;;;;;;27.00;12.07;;;;;;;-142.75;100.00;79350.75;4983341;28;20126;-62
2022/12/01 01:17:12;;;;;;;26.55;13.38;;;;;;;-142.75;100.00;79352.72;4982688;28;20338;-62
2022/12/01 01:19:38;;;;;;;26.38;12.68;;;;;;;-142.75;100.00;79333.00;4982598;28;20376;-62
2022/12/01 01:22:03;;;;;;;31.25;14.52;;;;;;;-142.75;100.00;79342.88;4982479;28;20229;-62
2022/12/01 01:24:29;;;;;;;29.15;13.95;;;;;;;-142.75;100.00;79327.09;4982430;28;20469;-62
2022/12/01 01:26:54;;;;;;;35.05;14.45;;;;;;;-142.75;100.00;79335.00;4982143;28;20072;-62
2022/12/01 01:29:20;;;;;;;34.55;15.68;;;;;;;-142.75;100.00;79327.09;4982584;28;20337;-62
2022/12/01 01:31:46;;;;;;;38.15;18.17;;;;;;;-142.75;100.00;79323.16;4982709;28;20307;-62
2022/12/01 01:34:11;;;;;;;40.15;18.35;;;;;;;-142.75;100.00;79311.34;4982596;28;20270;-62
2022/12/01 01:36:36;;;;;;;43.33;17.83;;;;;;;-142.75;100.00;79295.59;4981683;28;20194;-63
2022/12/01 01:39:03;;;;;;;44.95;17.98;;;;;;;-142.75;100.00;79283.78;4982315;28;20507;-62
2022/12/01 01:41:28;;;;;;;;;;;;;;;-142.75;100.00;79269.97;4983484;28;20553;-62
2022/12/01 01:44:00;;;;;;;47.00;18.70;;;;;;;-142.75;100.00;79256.19;4982385;28;20019;-63
2022/12/01 01:46:33;;;;;;;47.40;18.90;;;;;;;-142.75;100.00;79256.19;4982760;28;20083;-63
2022/12/01 01:49:03;;;;;;;44.57;19.17;;;;;;;-142.75;100.00;79268.00;4980435;28;20025;-62
2022/12/01 01:51:34;;;;;;;43.33;18.73;;;;;;;-142.75;100.00;79264.06;4982488;28;20021;-62
2022/12/01 01:54:07;;;;;;;45.97;18.77;;;;;;;-142.75;100.00;79236.50;4982063;28;20060;-62
2022/12/01 01:56:35;;;;;;;40.33;18.97;;;;;;;-142.75;100.00;79242.41;4981860;28;20021;-62
2022/12/01 01:59:01;;;;;;;47.83;18.03;;;;;;;-142.75;100.00;79248.31;4982725;28;20033;-62
2022/12/01 02:01:27;;;;;;;;;;;;;;;-142.75;100.00;79246.34;4979306;28;20627;-62
2022/12/01 02:03:53;;;;;;;42.73;18.00;;;;;;;-142.75;100.00;79238.47;4982021;28;19912;-62
2022/12/01 02:06:21;;;;;;;38.90;19.07;;;;;;;-142.75;100.00;79232.56;4981844;28;20017;-62
2022/12/01 02:08:46;;;;;;;44.00;18.17;;;;;;;-142.75;100.00;79218.75;4981754;28;20079;-62
2022/12/01 02:11:20;;;;;;;41.67;19.00;;;;;;;-142.75;100.00;79208.91;4981740;28;20527;-62
2022/12/01 02:14:14;;;;;;;51.93;19.77;;;;;;;-142.75;100.00;79201.03;4964972;28;20136;-62
2022/12/01 02:17:00;;;;;;;46.47;20.13;;;;;;;-142.75;100.00;79206.94;4982108;28;20059;-62
2022/12/01 02:19:54;;;;;;;48.07;18.73;;;;;;;-142.75;100.00;79203.00;4979133;28;20166;-62
2022/12/01 02:22:47;;;;;;;45.13;19.20;;;;;;;-142.75;100.00;79187.25;4980395;28;20044;-62
2022/12/01 02:25:20;;;;;;;42.10;19.37;;;;;;;-142.75;100.00;79189.22;4981490;28;20098;-63
2022/12/01 02:28:15;;;;;;;44.37;18.10;;;;;;;-142.75;100.00;79183.31;4981380;28;20106;-62
2022/12/01 02:30:44;;;;;;;50.37;20.37;;;;;;;-142.75;100.00;79169.53;4981041;28;20114;-62
2022/12/01 02:33:23;;;;;;;45.37;19.17;;;;;;;-142.75;100.00;79161.66;4981655;28;20139;-62
2022/12/01 02:36:02;;;;;;;49.77;21.37;;;;;;;-142.75;100.00;79161.66;4981303;28;20136;-62
2022/12/01 02:38:33;;;;;;;44.07;19.20;;;;;;;-142.75;100.00;79155.72;4980793;28;20028;-63
2022/12/01 02:41:11;;;;;;;51.10;20.97;;;;;;;-142.75;100.00;79153.75;4977781;28;20589;-62
2022/12/01 02:43:49;;;;;;;54.67;21.63;;;;;;;-142.75;100.00;79149.81;4982849;28;20033;-62
2022/12/01 02:46:31;;;;;;;50.47;19.87;;;;;;;-142.75;100.00;79151.78;4977409;28;20044;-62
2022/12/01 02:49:01;;;;;;;48.10;19.17;;;;;;;-142.75;100.00;79138.00;4981377;28;20095;-62
2022/12/01 02:51:30;;;;;;;54.67;20.73;;;;;;;-142.75;100.00;79145.88;4985691;28;20620;-62
2022/12/01 02:53:58;;;;;;;50.30;19.83;;;;;;;-142.75;100.00;79128.16;4985333;28;20029;-62
2022/12/01 02:56:24;;;;;;;51.83;20.67;;;;;;;-142.75;100.00;79139.97;4985243;28;20024;-62
2022/12/01 02:58:49;;;;;;;44.10;19.85;;;;;;;-142.75;100.00;79145.88;4985792;28;20359;-62
2022/12/01 03:01:23;;;;;;;49.40;20.25;;;;;;;-142.75;100.00;79157.72;4985134;28;20512;-62
2022/12/01 03:04:24;;;;;;;49.20;20.83;;;;;;;-142.75;100.00;79145.88;4984977;28;20140;-62
2022/12/01 03:07:18;;;;;;;55.83;21.33;;;;;;;-142.75;100.00;79151.78;4957484;28;20110;-62
2022/12/01 03:09:47;;;;;;;59.37;21.23;;;;;;;-142.75;100.00;79145.88;4968253;28;20169;-62
2022/12/01 03:12:17;;;;;;;43.60;20.80;;;;;;;-142.75;100.00;79155.72;4985494;28;20043;-62
2022/12/01 03:15:00;;;;;;;56.30;21.67;;;;;;;-142.75;100.00;79145.88;4984839;28;20036;-62
2022/12/01 03:17:49;;;;;;;50.43;22.43;;;;;;;-142.75;100.00;79157.72;4984472;28;20106;-62
2022/12/01 03:20:27;;;;;;;49.27;21.20;;;;;;;-142.75;100.00;79155.72;4984060;28;20033;-62
2022/12/01 03:22:58;;;;;;;52.90;21.60;;;;;;;-142.75;100.00;79155.72;4983415;28;20028;-62
2022/12/01 03:25:25;;;;;;;43.47;19.70;;;;;;;-142.75;100.00;79187.25;4981265;28;20557;-62
2022/12/01 03:27:55;;;;;;;53.47;22.90;;;;;;;-142.75;100.00;79157.72;4984839;28;20040;-62
2022/12/01 03:30:23;;;;;;;51.93;21.37;;;;;;;-142.75;100.00;79165.59;4984895;28;20025;-62
2022/12/01 03:32:56;;;;;;;45.93;20.23;;;;;;;-142.75;100.00;79179.38;4984883;28;20033;-63
2022/12/01 03:35:30;;;;;;;49.53;21.10;;;;;;;-142.75;100.00;79187.25;4984510;28;20029;-62
2022/12/01 03:38:01;;;;;;;44.17;20.67;;;;;;;-142.75;100.00;79181.34;4984675;28;20033;-62
2022/12/01 03:40:29;;;;;;;50.77;20.63;;;;;;;-142.75;100.00;79189.22;4984809;28;20558;-62
2022/12/01 03:43:12;;;;;;;50.43;18.90;;;;;;;-142.75;100.00;79208.91;4985216;28;20033;-62
2022/12/01 03:45:55;;;;;;;44.07;18.43;;;;;;;-142.75;100.00;79216.78;4984736;28;20029;-62
2022/12/01 03:48:23;;;;;;;39.00;17.47;;;;;;;-142.75;100.00;79246.34;4984458;28;20025;-62
2022/12/01 03:51:16;;;;;;;35.50;15.67;;;;;;;-142.75;100.00;79230.59;4984480;28;20036;-62
2022/12/01 03:54:11;;;;;;;35.03;15.23;;;;;;;-142.75;100.00;79240.44;4982507;28;20592;-62
2022/12/01 03:56:43;;;;;;;35.60;14.23;;;;;;;-142.75;100.00;79228.63;4983645;28;20021;-62
2022/12/01 03:59:10;;;;;;;30.90;14.30;;;;;;;-142.75;100.00;79238.47;4983590;28;20036;-62
2022/12/01 04:01:35;;;;;;;23.33;12.20;;;;;;;-142.75;100.00;79240.44;4984340;28;20140;-63
2022/12/01 04:04:06;;;;;;;35.75;16.15;;;;;;;-142.75;100.00;79236.50;4985107;28;20279;-64
2022/12/01 04:06:32;;;;;;;39.30;16.77;;;;;;;-142.75;100.00;79238.47;4982153;28;20020;-62
2022/12/01 04:08:57;;;;;;;;;;;;;;;-142.75;100.00;79210.88;4984413;28;20029;-62
2022/12/01 04:14:10;;;;;;;41.47;18.10;;;;;;;-142.75;100.00;79260.13;4983676;28;20063;-64
2022/12/01 04:16:35;;;;;;;45.37;17.57;;;;;;;-142.75;100.00;79305.44;4983775;28;20028;-64
2022/12/01 04:19:01;;;;;;;36.22;16.20;;;;;;;-142.75;100.00;79305.44;4983576;28;20322;-64
2022/12/01 04:21:26;;;;;;;31.10;15.07;;;;;;;-142.75;100.00;79309.38;4981148;28;20064;-64
2022/12/01 04:24:01;;;;;;;37.40;15.60;;;;;;;-142.75;100.00;79315.28;4983962;28;20303;-62
2022/12/01 04:26:29;;;;;;;33.93;14.40;;;;;;;-142.75;100.00;79323.16;4983267;28;20025;-62
2022/12/01 04:28:54;;;;;;;33.67;14.83;;;;;;;-142.75;100.00;79313.31;4983417;28;20110;-62
2022/12/01 04:31:20;;;;;;;28.95;13.20;;;;;;;-142.75;100.00;79309.38;4983488;28;20256;-62
2022/12/01 04:33:46;;;;;;;34.30;14.35;;;;;;;-142.75;100.00;79293.63;4983570;28;20373;-62
2022/12/01 04:36:11;;;;;;;36.63;16.65;;;;;;;-142.75;100.00;79283.78;4983941;28;20314;-62
2022/12/01 04:38:37;;;;;;;42.70;17.73;;;;;;;-142.75;100.00;79279.84;4983668;28;20182;-62
2022/12/01 04:41:12;;;;;;;50.38;19.48;;;;;;;-142.75;100.00;79269.97;4985053;28;20314;-62
2022/12/01 04:43:38;;;;;;;49.23;18.57;;;;;;;-142.75;100.00;79260.13;4983530;28;20013;-62
2022/12/01 04:46:04;;;;;;;47.33;20.95;;;;;;;-142.75;100.00;79246.34;4983135;28;20496;-62
2022/12/01 04:48:30;;;;;;;54.93;20.83;;;;;;;-142.75;100.00;79264.06;4984487;28;20025;-62
2022/12/01 04:50:56;;;;;;;55.00;22.55;;;;;;;-142.75;100.00;79264.06;4985010;28;20441;-62
2022/12/01 04:53:21;;;;;;;51.92;20.85;;;;;;;-142.75;100.00;79275.88;4983489;28;20111;-64
2022/12/01 04:55:47;;;;;;;46.10;17.98;;;;;;;-142.75;100.00;79271.94;4985595;28;20399;-62
2022/12/01 04:58:12;;;;;;;49.03;21.15;;;;;;;-142.75;100.00;79279.84;4983334;28;20412;-62
2022/12/01 05:00:38;;;;;;;48.03;18.77;;;;;;;-142.75;100.00;79287.72;4983328;28;20317;-62
2022/12/01 05:03:04;;;;;;;42.83;18.17;;;;;;;-142.75;100.00;79303.47;4984163;28;20338;-62
2022/12/01 05:05:30;;;;;;;39.05;17.05;;;;;;;-142.75;100.00;79307.41;4984281;28;20329;-62
2022/12/01 05:07:57;;;;;;;40.50;16.85;;;;;;;-142.75;100.00;79303.47;4985429;28;20373;-62
2022/12/01 05:10:23;;;;;;;45.43;18.87;;;;;;;-142.75;100.00;79295.59;4982952;28;20024;-63
2022/12/01 05:12:48;;;;;;;42.08;18.92;;;;;;;-142.75;100.00;79287.72;4983401;28;20322;-62
2022/12/01 05:15:14;;;;;;;36.63;16.42;;;;;;;-142.75;100.00;79279.84;4985353;28;20353;-62
2022/12/01 05:17:40;;;;;;;44.17;17.77;;;;;;;-142.75;100.00;79275.88;4983936;28;20292;-63
2022/12/01 05:23:00;;;;;;;50.83;19.93;;;;;;;-142.75;100.00;79256.19;4982822;28;20252;-63
2022/12/01 05:25:26;;;;;;;50.55;20.98;;;;;;;-142.75;100.00;79242.41;4984137;28;20464;-63
2022/12/01 05:27:51;;;;;;;55.85;21.85;;;;;;;-142.75;100.00;79250.28;4982863;28;20033;-63
2022/12/01 05:30:16;;;;;;;42.45;17.55;;;;;;;-142.75;100.00;79236.50;4985140;28;20021;-62
2022/12/01 05:32:42;;;;;;;51.25;20.08;;;;;;;-142.75;100.00;79252.25;4984434;28;20349;-62
2022/12/01 05:35:07;;;;;;;47.20;18.67;;;;;;;-142.75;100.00;79254.22;4984185;28;20525;-62
2022/12/01 05:37:33;;;;;;;50.90;20.92;;;;;;;-142.75;100.00;79262.09;4984809;28;20258;-62
2022/12/01 05:39:59;;;;;;;48.38;20.65;;;;;;;-142.75;100.00;79244.38;4980838;28;20040;-63
2022/12/01 05:42:25;;;;;;;46.93;19.73;;;;;;;-142.75;100.00;79234.53;4982954;28;20051;-62
2022/12/01 05:44:51;;;;;;;57.53;21.50;;;;;;;-142.75;100.00;79246.34;4982717;28;20392;-61
2022/12/01 05:47:16;;;;;;;49.83;20.30;;;;;;;-142.75;100.00;79228.63;4982011;28;20342;-64
2022/12/01 05:49:42;;;;;;;49.20;20.30;;;;;;;-142.75;100.00;79234.53;4982171;28;20354;-62
2022/12/01 05:52:07;;;;;;;54.10;19.95;;;;;;;-142.75;100.00;79232.56;4984680;28;20483;-62
2022/12/01 05:54:33;;;;;;;47.88;19.80;;;;;;;-142.75;100.00;79238.47;4982649;28;20419;-63
2022/12/01 05:56:58;;;;;;;50.95;20.05;;;;;;;-142.75;100.00;79216.78;4980175;28;20396;-61
2022/12/01 05:59:24;;;;;;;45.38;19.75;;;;;;;-142.75;100.00;79236.50;4982525;28;20341;-61
2022/12/01 06:01:49;;;;;;;46.80;20.20;;;;;;;-142.75;100.00;79232.56;4982458;28;20318;-61
2022/12/01 06:04:15;;;;;;;46.67;17.98;;;;;;;-142.75;100.00;79252.25;4982459;28;20334;-63
2022/12/01 06:06:40;;;;;;;42.28;18.85;;;;;;;-142.75;100.00;79246.34;4982534;28;20433;-63
2022/12/01 06:09:07;;;;;;;59.67;19.42;;;;;;;-142.75;100.00;79254.22;4982186;28;20354;-62
2022/12/01 06:11:32;;;;;;;46.63;18.63;;;;;;;-142.75;100.00;79275.88;4982631;28;20152;-61
2022/12/01 06:13:58;;;;;;;38.90;16.30;;;;;;;-142.75;100.00;79291.66;4982635;28;20343;-63
2022/12/01 06:16:23;;;;;;;46.28;18.60;;;;;;;-142.75;100.00;79307.41;4984307;28;20046;-61
2022/12/01 06:18:49;;;;;;;42.55;16.38;;;;;;;-142.75;100.00;79311.34;4983912;28;20175;-63
2022/12/01 06:21:14;;;;;;;41.25;17.30;;;;;;;-142.75;100.00;79319.22;4983420;28;20414;-62
2022/12/01 06:23:40;;;;;;;47.55;18.70;;;;;;;-142.75;100.00;79323.16;4981450;28;20315;-62
2022/12/01 06:26:05;;;;;;;38.92;18.10;;;;;;;-142.75;100.00;79331.03;5023746;22;20372;-67
2022/12/01 06:28:31;;;;;;;43.75;18.90;;;;;;;-142.75;100.00;79329.06;5004777;28;20294;-68
2022/12/01 06:30:56;;;;;;;44.35;18.08;;;;;;;-142.75;100.00;79323.16;5005340;28;20333;-68
2022/12/01 06:33:22;;;;;;;42.25;18.00;;;;;;;-142.75;100.00;79335.00;5002909;28;20360;-68
2022/12/01 06:35:47;;;;;;;45.70;19.15;;;;;;;-142.75;100.00;79374.38;5002219;28;20039;-67
2022/12/01 06:38:13;;;;;;;44.88;17.63;;;;;;;-142.75;100.00;79374.38;5003806;28;20328;-68
2022/12/01 06:40:38;;;;;;;37.10;14.18;;;;;;;-142.75;100.00;79398.03;5002559;28;20414;-68
2022/12/01 06:43:05;;;;;;;41.15;15.18;;;;;;;-142.75;100.00;79386.19;5002240;28;20461;-67
2022/12/01 06:45:30;;;;;;;35.03;14.77;;;;;;;-142.75;100.00;79384.22;4999488;28;20583;-68
2022/12/01 06:47:56;;;;;;;40.08;16.23;;;;;;;-142.75;100.00;79382.25;4999921;28;20147;-69
2022/12/01 06:50:23;;;;;;;48.42;17.48;;;;;;;-142.75;100.00;79370.44;5001408;28;20043;-68
2022/12/01 06:52:48;;;;;;;48.60;18.37;;;;;;;-142.75;100.00;79362.56;4998066;28;20028;-67
2022/12/01 06:55:14;;;;;;;39.58;17.38;;;;;;;-142.75;100.00;79368.47;5000529;28;20410;-68
2022/12/01 06:57:40;;;;;;;44.47;17.40;;;;;;;-142.75;100.00;79390.13;4999332;28;20561;-68
2022/12/01 07:00:07;;;;;;;46.25;18.42;;;;;;;-142.75;100.00;79362.56;4999943;28;20065;-66
2022/12/01 07:02:33;;;;;;;50.23;19.07;;;;;;;-142.75;100.00;79370.44;4996384;28;20036;-67
2022/12/01 07:04:58;;;;;;;45.08;17.42;;;;;;;-142.75;100.00;79380.28;4999178;28;20178;-67
2022/12/01 07:07:24;;;;;;;46.38;17.88;;;;;;;-142.75;100.00;79376.34;5001572;28;20336;-67
2022/12/01 07:09:49;;;;;;;36.55;15.77;;;;;;;-142.75;100.00;79394.09;5000011;28;20353;-67
2022/12/01 07:12:15;;;;;;;34.28;14.68;;;;;;;-142.75;100.00;79370.44;5001707;28;20444;-67
2022/12/01 07:14:41;;;;;;;38.65;15.27;;;;;;;-142.75;100.00;79370.44;5003770;28;20395;-68
2022/12/01 07:17:08;;;;;;;42.97;16.58;;;;;;;-142.75;100.00;79368.47;5003437;28;20407;-68
2022/12/01 07:19:34;;;;;;;42.57;17.97;;;;;;;-142.75;100.00;79376.34;4998431;28;20064;-69
2022/12/01 07:21:59;;;;;;;45.13;18.30;;;;;;;-142.75;100.00;79374.38;5001069;28;20375;-67
2022/12/01 07:24:25;;;;;;;41.00;17.88;;;;;;;-142.75;100.00;79390.13;5003617;28;20329;-68
2022/12/01 07:26:50;;;;;;;43.28;14.65;;;;;;;-142.75;100.00;79398.03;5003380;28;20379;-67
2022/12/01 07:29:16;;;;;;;39.83;16.65;;;;;;;-142.75;100.00;79405.91;4999305;28;20375;-68
2022/12/01 07:31:42;;;;;;;38.22;16.38;;;;;;;-142.75;100.00;79400.00;4999797;28;20333;-67
2022/12/01 07:34:10;;;;;;;;;;;;;;;-142.75;100.00;79398.03;5003169;28;20028;-68
2022/12/01 07:36:35;;;;;;;43.77;16.03;;;;;;;-142.75;100.00;79386.19;5004611;28;19942;-67
2022/12/01 07:39:06;;;;;;;43.75;17.95;;;;;;;-142.75;100.00;79396.06;5004522;28;20325;-68
2022/12/01 07:41:32;;;;;;;41.70;17.73;;;;;;;-142.75;100.00;79415.75;5005067;28;20028;-68
2022/12/01 07:43:57;;;;;;;48.78;19.13;;;;;;;-142.75;100.00;79431.50;5005153;28;20364;-68
2022/12/01 07:46:25;;;;;;;40.50;17.55;;;;;;;-142.75;100.00;79409.84;5005665;28;20415;-67
2022/12/01 07:48:52;;;;;;;43.30;17.83;;;;;;;-142.75;100.00;79409.84;5005310;28;20079;-68
2022/12/01 07:51:18;;;;;;;45.33;17.97;;;;;;;-142.75;100.00;79401.97;5004503;28;20164;-68
2022/12/01 07:53:45;;;;;;;44.23;18.17;;;;;;;-142.75;100.00;79394.09;5005674;28;20127;-68
2022/12/01 07:56:11;;;;;;;52.10;19.13;;;;;;;-142.75;100.00;79382.25;5002652;28;20033;-67
2022/12/01 07:58:37;;;;;;;47.88;19.15;;;;;;;-142.75;100.00;79401.97;5004140;28;20376;-68
2022/12/01 08:01:30;;;;;;;38.45;16.80;;;;;;;-142.75;100.00;79400.00;5004114;28;20120;-67
2022/12/01 08:03:57;;;;;;;42.97;18.03;;;;;;;-142.75;100.00;79384.22;5003814;28;20600;-68
2022/12/01 08:06:24;;;;;;;45.20;17.07;;;;;;;-142.75;100.00;79378.31;5004747;28;20040;-68
2022/12/01 08:08:50;;;;;;;44.03;17.67;;;;;;;-142.75;100.00;79372.41;5002000;28;20024;-68
2022/12/01 08:11:20;;;;;;;;;;;;;;;-142.75;100.00;79372.41;5006753;28;20537;-68
2022/12/01 08:13:45;;;;;;;45.70;17.73;;;;;;;-142.75;100.00;79344.84;5007631;28;20035;-67
2022/12/01 08:16:13;;;;;;;47.75;18.63;;;;;;;-142.75;100.00;79315.28;5004352;28;20293;-68
2022/12/01 08:18:39;;;;;;;55.50;19.43;;;;;;;-142.75;100.00;79283.78;5002643;28;20098;-68
2022/12/01 08:21:08;;;;;;;50.33;21.87;;;;;;;-142.75;100.00;79260.13;4991898;28;20033;-68
2022/12/01 08:23:33;;;;;;;53.90;20.57;;;;;;;-142.75;100.00;79248.31;4994687;28;20051;-69
2022/12/01 08:26:01;;;;;;;48.42;20.83;;;;;;;-142.75;100.00;79214.81;5000625;28;20439;-68
2022/12/01 08:28:26;;;;;;;53.23;20.53;;;;;;;-142.75;100.00;79214.81;5003557;28;20032;-67
2022/12/01 08:30:52;;;;;;;57.22;21.90;;;;;;;-142.75;100.00;79179.38;5005635;28;20378;-68
2022/12/01 08:33:17;;;;;;;44.30;19.50;;;;;;;-142.75;100.00;79169.53;5004216;28;20131;-68
2022/12/01 08:35:43;;;;;;;47.65;19.73;;;;;;;-142.75;100.00;79151.78;5003869;28;20329;-69
2022/12/01 08:38:09;;;;;;;47.58;19.77;;;;;;;-142.75;100.00;79126.19;5055998;28;20019;-68
2022/12/01 08:40:35;;;;;;;53.60;21.05;;;;;;;-142.75;100.00;79100.59;5061537;28;20032;-68
2022/12/01 08:43:00;;;;;;;46.42;19.67;;;;;;;-142.75;100.00;79067.09;5061510;28;20374;-69
2022/12/01 08:45:26;;;;;;;49.65;20.95;;;;;;;-142.75;100.00;79037.56;5061928;28;20093;-69
2022/12/01 08:47:52;;;;;;;51.08;20.90;;;;;;;-142.75;100.00;79008.00;5061916;28;20398;-68
2022/12/01 08:50:17;;;;;;;49.23;20.57;;;;;;;-142.75;100.00;78996.19;5061072;28;20032;-68
2022/12/01 08:52:44;;;;;;;52.97;20.00;;;;;;;-142.75;100.00;78972.56;5061257;28;20040;-68
2022/12/01 08:55:09;;;;;;;46.03;18.52;;;;;;;-142.75;100.00;78972.56;5056735;28;20744;-68
2022/12/01 08:57:35;;;;;;;47.78;19.67;;;;;;;-142.75;100.00;78958.75;5051465;28;20029;-68
2022/12/01 09:00:00;;;;;;;48.97;19.57;;;;;;;-142.75;100.00;78939.06;5057901;28;20020;-69
2022/12/01 09:02:25;;;;;;;42.58;18.98;;;;;;;-142.75;100.00;78913.47;5060384;28;20990;-69
2022/12/01 09:04:51;;;;;;;52.67;19.92;;;;;;;-142.75;100.00;78893.78;5061232;28;20123;-68
2022/12/01 09:07:18;;;;;;;49.53;19.60;;;;;;;-142.75;100.00;78850.44;5059027;28;20555;-68
2022/12/01 09:09:44;;;;;;;44.38;20.13;;;;;;;-142.75;100.00;78846.50;5060452;28;20055;-69
2022/12/01 09:12:09;;;;;;;;;;;;;;;-142.75;100.00;78826.81;5061425;28;20032;-69
2022/12/01 09:14:40;;;;;;;47.50;18.75;;;;;;;-142.75;100.00;78830.75;5056220;28;20420;-68
2022/12/01 09:17:06;;;;;;;54.35;19.52;;;;;;;-142.75;100.00;78791.34;5055337;28;20043;-69
2022/12/01 09:19:31;;;;;;;;;;;;;;;-142.75;100.00;78773.63;5056847;28;20484;-69
2022/12/01 09:21:57;;;;;;;45.40;19.98;;;;;;;-142.75;100.00;78783.47;5056037;28;19916;-69
2022/12/01 09:24:22;;;;;;;46.42;19.65;;;;;;;-142.75;100.00;78744.09;5053756;28;20024;-68
2022/12/01 09:26:48;;;;;;;49.15;20.90;;;;;;;-142.75;100.00;78736.19;5052876;28;20513;-69
2022/12/01 09:29:14;;;;;;;46.28;18.88;;;;;;;-142.75;100.00;78730.28;5053470;28;20466;-69
2022/12/01 09:31:40;;;;;;;52.03;20.02;;;;;;;-142.75;100.00;78677.13;5052485;28;20031;-69
2022/12/01 09:34:09;;;;;;;45.20;18.48;;;;;;;-142.75;100.00;78627.88;5055398;28;20037;-68
2022/12/01 09:36:36;;;;;;;52.55;19.98;;;;;;;-142.75;100.00;78625.91;5057740;28;20043;-68
2022/12/01 09:39:02;;;;;;;47.53;20.55;;;;;;;-142.75;100.00;78602.28;5059472;28;20036;-69
2022/12/01 09:41:30;;;;;;;45.25;19.10;;;;;;;-142.75;100.00;78572.72;5059684;28;20609;-69
2022/12/01 09:44:38;;;;;;;53.90;21.15;;;;;;;-142.75;100.00;78576.66;5060633;28;20044;-68
2022/12/01 09:47:09;;;;;;;48.80;19.40;;;;;;;-142.75;100.00;78625.91;5036570;28;20033;-68
2022/12/01 09:49:49;;;;;;;50.03;19.65;;;;;;;-142.75;100.00;78690.91;5056232;28;20740;-71
2022/12/01 09:52:18;;;;;;;50.65;20.48;;;;;;;-142.75;100.00;78712.56;5059881;28;20549;-69
2022/12/01 09:54:45;;;;;;;48.85;20.10;;;;;;;-142.75;100.00;78748.03;5060085;28;20036;-69
2022/12/01 09:57:23;;;;;;;47.55;18.42;;;;;;;-142.75;100.00;78736.19;5059065;28;20035;-67
2022/12/01 09:59:50;;;;;;;50.67;20.42;;;;;;;-142.75;100.00;78744.09;5062299;28;20043;-67
2022/12/01 10:02:59;;;;;;;52.78;21.10;;;;;;;-142.75;100.00;78736.19;5060278;28;20500;-67
2022/12/01 10:05:30;;;;;;;42.95;19.63;;;;;;;-142.75;100.00;78726.34;5059869;28;20080;-70
2022/12/01 10:08:06;;;;;;;51.45;20.20;;;;;;;-142.75;100.00;78728.31;5059297;28;20140;-68
2022/12/01 10:10:42;;;;;;;48.22;20.25;;;;;;;-142.75;100.00;78716.50;5057208;28;20032;-68
2022/12/01 10:13:26;;;;;;;53.47;21.63;;;;;;;-142.75;100.00;78702.72;5058360;28;20020;-68
2022/12/01 10:16:03;;;;;;;48.97;19.45;;;;;;;-142.75;100.00;78679.09;5055279;28;20025;-68
2022/12/01 10:18:54;;;;;;;51.38;20.92;;;;;;;-142.75;100.00;78651.50;5051948;28;20038;-68
2022/12/01 10:21:41;;;;;;;47.55;20.30;;;;;;;-142.75;100.00;78620.00;5059485;28;20040;-68
2022/12/01 10:24:15;;;;;;;47.70;20.15;;;;;;;-142.75;100.00;78584.56;5058680;28;20029;-69
2022/12/01 10:26:50;;;;;;;52.42;19.45;;;;;;;-142.75;100.00;78560.91;5058734;28;20425;-68
2022/12/01 10:29:32;;;;;;;49.45;19.90;;;;;;;-142.75;100.00;78529.41;5058363;28;20505;-68
2022/12/01 10:32:17;;;;;;;50.78;20.67;;;;;;;-142.75;100.00;78478.19;5057347;28;20107;-67
2022/12/01 10:34:45;;;;;;;44.00;19.48;;;;;;;-142.75;100.00;78472.28;5043523;28;20380;-67
2022/12/01 10:37:24;;;;;;;47.00;19.35;;;;;;;-142.75;100.00;78419.13;5000401;28;20051;-68
2022/12/01 10:39:52;;;;;;;43.53;18.85;;;;;;;-142.75;100.00;78430.94;5003499;28;20031;-68
2022/12/01 10:42:36;;;;;;;50.05;19.67;;;;;;;-142.75;100.00;78444.72;5002578;28;20020;-67
2022/12/01 10:45:04;;;;;;;49.13;19.45;;;;;;;-142.75;100.00;78428.97;5002996;28;20577;-67
2022/12/01 10:47:30;;;;;;;47.13;18.55;;;;;;;-142.75;100.00;78407.31;4995487;28;20029;-68
2022/12/01 10:49:56;;;;;;;;;;;;;;;-142.75;100.00;78360.03;5002361;28;20024;-67
2022/12/01 10:52:28;;;;;;;46.33;19.92;;;;;;;-142.75;100.00;78358.06;4999687;28;20367;-67
2022/12/01 10:54:53;;;;;;;43.65;18.52;;;;;;;-142.75;100.00;78393.50;5003090;28;20113;-67
2022/12/01 10:57:19;;;;;;;44.03;18.92;;;;;;;-142.75;100.00;78354.13;5003764;28;20508;-66
2022/12/01 10:59:51;;;;;;;42.47;18.95;;;;;;;-142.75;100.00;78377.75;5002966;28;20378;-67
2022/12/01 11:02:21;;;;;;;46.95;18.65;;;;;;;-142.75;100.00;78367.91;5001255;28;20029;-67
2022/12/01 11:05:02;;;;;;;48.60;18.45;;;;;;;-142.75;100.00;78395.47;5002101;28;20035;-69
2022/12/01 11:07:48;;;;;;;44.72;19.45;;;;;;;-142.75;100.00;78336.41;5002200;28;20086;-67
2022/12/01 11:10:22;;;;;;;43.20;16.87;;;;;;;-142.75;100.00;78385.63;4996177;28;20120;-67
2022/12/01 11:13:19;;;;;;;41.28;18.42;;;;;;;-142.75;100.00;78352.16;4993168;28;20077;-68
2022/12/01 11:15:54;;;;;;;36.80;16.55;;;;;;;-142.75;100.00;78308.84;5008611;28;20028;-67